Time;durP1;ratioP1;P1;durP2;ratioP2;P2;SDS_P1;SDS_P2;PMS_P1;PMS_P2;Temp;Humidity;BMP_temperature;BMP_pressure;BME280_temperature;BME280_humidity;BME280_pressure;Samples;Min_cycle;Max_cycle;Signal;HPM_P1;HPM_P2
2023/03/31 06:33:05;;;;;;;28.02;3.85;;;15.80;73.30;;;;;;5716634;23;20042;-75
2023/03/31 06:35:31;;;;;;;26.85;4.70;;;15.80;73.30;;;;;;4842675;29;20050;-76
2023/03/31 06:37:57;;;;;;;20.33;4.13;;;15.80;73.20;;;;;;4847228;29;20077;-76
2023/03/31 06:40:23;;;;;;;22.70;4.13;;;15.80;73.00;;;;;;4846735;29;20118;-76
2023/03/31 06:42:49;;;;;;;13.55;3.92;;;15.80;73.60;;;;;;4832819;29;20042;-77
2023/03/31 06:45:15;;;;;;;23.02;4.78;;;15.80;72.90;;;;;;4861375;29;20118;-76
2023/03/31 06:47:41;;;;;;;22.50;4.93;;;15.80;72.80;;;;;;4848979;29;20041;-75
2023/03/31 06:50:08;;;;;;;18.45;4.07;;;15.80;72.80;;;;;;4847282;29;20550;-76
2023/03/31 06:52:35;;;;;;;22.05;4.13;;;15.70;72.70;;;;;;4864586;29;20055;-76
2023/03/31 06:55:01;;;;;;;19.10;3.20;;;15.70;72.80;;;;;;4856772;29;20073;-82
2023/03/31 06:57:28;;;;;;;14.57;3.15;;;15.70;73.00;;;;;;4822035;29;20065;-78
2023/03/31 06:59:54;;;;;;;19.73;3.65;;;15.70;73.10;;;;;;4852518;29;20053;-76
2023/03/31 07:02:20;;;;;;;18.77;3.90;;;15.70;73.50;;;;;;4863977;29;20132;-76
2023/03/31 07:04:45;;;;;;;15.18;3.97;;;15.70;73.40;;;;;;4865139;29;20113;-77
2023/03/31 07:07:11;;;;;;;21.00;3.58;;;15.70;73.30;;;;;;4864794;29;20128;-75
2023/03/31 07:09:37;;;;;;;19.60;3.25;;;15.70;73.20;;;;;;4863825;29;20052;-76
2023/03/31 07:12:06;;;;;;;18.35;3.83;;;15.70;73.30;;;;;;4864537;29;20351;-76
2023/03/31 07:14:31;;;;;;;18.15;3.28;;;15.70;73.40;;;;;;4864998;29;20056;-75
2023/03/31 07:16:57;;;;;;;16.10;2.95;;;15.70;73.50;;;;;;4853404;29;20054;-76
2023/03/31 07:19:23;;;;;;;15.68;3.05;;;15.70;73.50;;;;;;4855209;29;20398;-77
2023/03/31 07:21:50;;;;;;;19.05;3.63;;;15.60;73.50;;;;;;4864194;29;20050;-77
2023/03/31 07:24:16;;;;;;;18.45;2.75;;;15.60;73.60;;;;;;4864419;29;20128;-76
2023/03/31 07:26:42;;;;;;;16.60;2.92;;;15.60;73.60;;;;;;4864329;29;20454;-77
2023/03/31 07:29:08;;;;;;;30.25;6.28;;;15.60;73.80;;;;;;4878294;29;20059;-75
2023/03/31 07:31:33;;;;;;;36.17;4.45;;;15.60;73.80;;;;;;4864165;29;20053;-78
2023/03/31 07:34:01;;;;;;;39.00;4.85;;;15.60;73.80;;;;;;4864302;29;20061;-76
2023/03/31 07:36:27;;;;;;;30.13;5.25;;;15.60;73.90;;;;;;4864041;29;20439;-78
2023/03/31 07:38:53;;;;;;;27.02;5.05;;;15.60;73.90;;;;;;4864018;29;20045;-76
2023/03/31 07:41:20;;;;;;;22.85;3.63;;;15.60;73.90;;;;;;4879180;29;20065;-76
2023/03/31 07:43:47;;;;;;;22.63;4.07;;;15.60;73.90;;;;;;4864979;29;20351;-76
2023/03/31 07:46:24;;;;;;;19.77;4.15;;;15.60;73.90;;;;;;4862086;29;20050;-75
2023/03/31 07:48:51;;;;;;;20.98;3.88;;;15.60;75.10;;;;;;4848275;29;20069;-77
2023/03/31 07:51:20;;;;;;;24.17;3.42;;;15.60;74.80;;;;;;4845886;29;20050;-77
2023/03/31 07:53:48;;;;;;;12.30;2.40;;;15.70;74.30;;;;;;4859667;29;20125;-75
2023/03/31 07:56:15;;;;;;;13.10;2.25;;;15.60;73.90;;;;;;4845589;29;20121;-77
2023/03/31 07:58:43;;;;;;;12.15;2.22;;;15.70;73.40;;;;;;4858544;29;20049;-74
2023/03/31 08:01:11;;;;;;;11.13;2.40;;;15.70;73.90;;;;;;4846945;29;20049;-78
2023/03/31 08:03:36;;;;;;;12.63;2.60;;;15.70;74.70;;;;;;4850136;29;20046;-74
2023/03/31 08:06:02;;;;;;;8.73;2.42;;;15.70;74.90;;;;;;4848210;29;20170;-78
2023/03/31 08:08:28;;;;;;;11.43;2.03;;;15.70;75.10;;;;;;4863847;29;20048;-78
2023/03/31 08:10:54;;;;;;;9.20;1.88;;;15.70;75.10;;;;;;4862715;29;20053;-73
2023/03/31 08:13:20;;;;;;;12.18;2.20;;;15.80;74.80;;;;;;4863207;29;20060;-73
2023/03/31 08:15:46;;;;;;;9.98;1.88;;;15.80;74.60;;;;;;4846936;29;20060;-75
2023/03/31 08:18:12;;;;;;;10.93;1.88;;;15.70;73.40;;;;;;4862822;29;20353;-74
2023/03/31 08:20:38;;;;;;;9.18;1.52;;;15.70;73.10;;;;;;4863250;29;20042;-78
2023/03/31 08:23:07;;;;;;;9.75;1.88;;;15.70;73.00;;;;;;4863131;29;20454;-75
2023/03/31 08:25:33;;;;;;;15.70;2.38;;;15.70;72.90;;;;;;4863619;29;20056;-77
2023/03/31 08:27:59;;;;;;;15.80;2.35;;;15.70;72.90;;;;;;4863120;29;20403;-78
2023/03/31 08:30:25;;;;;;;9.93;2.22;;;15.70;72.90;;;;;;4859538;29;20403;-76
2023/03/31 08:32:51;;;;;;;16.17;2.63;;;15.60;72.90;;;;;;4828925;29;20367;-80
2023/03/31 08:35:19;;;;;;;12.73;2.10;;;15.60;73.00;;;;;;4823521;29;20058;-82
2023/03/31 08:37:46;;;;;;;12.90;2.20;;;15.70;73.00;;;;;;4828395;29;20138;-77
2023/03/31 08:40:18;;;;;;;10.98;1.70;;;15.80;72.80;;;;;;4844413;29;20085;-79
2023/03/31 08:42:48;;;;;;;14.90;1.92;;;15.90;72.70;;;;;;4829372;29;20050;-78
2023/03/31 08:45:33;;;;;;;13.82;2.30;;;16.00;72.40;;;;;;4844484;29;20444;-78
2023/03/31 08:48:06;;;;;;;12.70;2.10;;;16.10;72.40;;;;;;4813446;29;20054;-78
2023/03/31 08:50:35;;;;;;;11.93;2.15;;;16.20;72.30;;;;;;4844613;29;20072;-79
2023/03/31 08:53:26;;;;;;;12.98;1.85;;;16.20;72.20;;;;;;4844802;29;20363;-79
2023/03/31 08:55:54;;;;;;;11.60;2.60;;;16.20;72.20;;;;;;4841937;29;20069;-78
2023/03/31 08:58:42;;;;;;;6.82;1.50;;;16.20;72.20;;;;;;4827709;29;20066;-77
2023/03/31 09:01:17;;;;;;;11.18;2.67;;;16.30;72.20;;;;;;4843626;29;20106;-76
2023/03/31 09:04:24;;;;;;;8.02;1.48;;;16.30;72.20;;;;;;4826826;29;20050;-77
2023/03/31 09:07:16;;;;;;;11.05;2.67;;;16.30;72.20;;;;;;4810534;29;20535;-79
2023/03/31 09:10:06;;;;;;;15.93;2.00;;;16.30;72.20;;;;;;4826297;29;20062;-76
2023/03/31 09:13:06;;;;;;;7.50;1.75;;;16.30;72.20;;;;;;4826167;29;20046;-77
2023/03/31 09:15:52;;;;;;;8.35;1.88;;;16.20;72.00;;;;;;4825534;29;20062;-76
2023/03/31 09:18:39;;;;;;;21.42;2.70;;;16.30;71.90;;;;;;4813373;29;20066;-75
2023/03/31 09:21:42;;;;;;;4.82;1.30;;;16.30;71.90;;;;;;4844164;29;20057;-76
2023/03/31 09:24:27;;;;;;;16.13;1.30;;;16.20;71.80;;;;;;4823799;29;20199;-76
2023/03/31 09:27:04;;;;;;;5.40;0.95;;;16.20;71.70;;;;;;4842944;29;20054;-75
2023/03/31 09:29:42;;;;;;;11.95;1.80;;;16.20;71.80;;;;;;4829995;29;20050;-76
2023/03/31 09:32:17;;;;;;;4.75;0.95;;;16.20;71.70;;;;;;4828060;29;20058;-76
2023/03/31 09:34:44;;;;;;;6.50;1.50;;;16.20;71.70;;;;;;4857331;29;20057;-77
2023/03/31 09:37:11;;;;;;;5.90;1.23;;;16.10;71.60;;;;;;4862119;29;20054;-77
2023/03/31 09:39:38;;;;;;;8.40;1.60;;;16.10;71.60;;;;;;4863106;29;20045;-75
2023/03/31 09:42:04;;;;;;;3.78;1.33;;;16.10;71.60;;;;;;4862926;29;20081;-78
2023/03/31 09:44:39;;;;;;;5.28;0.95;;;16.10;71.60;;;;;;4862835;29;20050;-75
2023/03/31 09:47:10;;;;;;;3.08;0.90;;;16.10;71.50;;;;;;4846049;29;20053;-78
2023/03/31 09:49:37;;;;;;;3.35;0.85;;;16.00;71.50;;;;;;4862909;29;20050;-78
2023/03/31 09:52:11;;;;;;;4.57;0.93;;;16.10;71.50;;;;;;4862342;29;20046;-76
2023/03/31 09:54:49;;;;;;;5.22;0.95;;;16.10;71.50;;;;;;4862833;29;20128;-78
2023/03/31 09:57:25;;;;;;;4.32;0.77;;;16.10;71.40;;;;;;4862269;29;20194;-76
2023/03/31 09:59:52;;;;;;;5.32;1.00;;;16.10;71.40;;;;;;4862445;29;20351;-76
2023/03/31 10:02:34;;;;;;;5.10;1.25;;;16.00;71.40;;;;;;4863183;29;20092;-76
2023/03/31 10:05:00;;;;;;;7.18;0.95;;;16.10;71.60;;;;;;4862368;29;20054;-77
2023/03/31 10:07:26;;;;;;;5.72;1.83;;;16.10;71.80;;;;;;4862593;29;20120;-78
2023/03/31 10:09:54;;;;;;;7.80;1.95;;;16.10;72.10;;;;;;4861096;29;20125;-76
2023/03/31 10:12:28;;;;;;;9.77;1.42;;;16.10;72.20;;;;;;4862294;29;20052;-77
2023/03/31 10:15:16;;;;;;;6.93;1.38;;;16.20;72.30;;;;;;4862091;29;20104;-79
2023/03/31 10:17:43;;;;;;;4.18;0.75;;;16.20;72.40;;;;;;4864248;29;20060;-78
2023/03/31 10:20:42;;;;;;;7.18;1.33;;;16.20;72.50;;;;;;4862036;29;20450;-76
2023/03/31 10:23:22;;;;;;;5.38;1.20;;;16.20;72.60;;;;;;4843200;29;20524;-77
2023/03/31 10:25:48;;;;;;;3.88;1.10;;;16.30;72.40;;;;;;4844163;29;20046;-77
2023/03/31 10:28:19;;;;;;;5.60;1.00;;;16.30;72.20;;;;;;4852347;29;20063;-78
2023/03/31 10:31:00;;;;;;;7.55;1.30;;;16.30;72.30;;;;;;4855399;29;20072;-75
2023/03/31 10:33:27;;;;;;;9.70;1.27;;;16.30;73.70;;;;;;4861961;29;20049;-79
2023/03/31 10:36:24;;;;;;;6.13;1.02;;;16.40;73.10;;;;;;4846821;29;20064;-77
2023/03/31 10:38:52;;;;;;;5.97;0.93;;;16.40;72.50;;;;;;4833376;29;20049;-77
2023/03/31 10:41:21;;;;;;;5.35;1.02;;;16.30;72.60;;;;;;4865711;29;20056;-76
2023/03/31 10:43:58;;;;;;;9.70;1.20;;;16.40;72.60;;;;;;4864877;29;20048;-79
2023/03/31 10:46:42;;;;;;;8.13;1.52;;;16.30;71.80;;;;;;4865017;29;20064;-78
2023/03/31 10:49:16;;;;;;;7.93;0.93;;;16.30;72.60;;;;;;4833807;29;20100;-78
2023/03/31 10:52:02;;;;;;;7.45;0.90;;;16.30;72.70;;;;;;4833814;29;20124;-78
2023/03/31 10:54:31;;;;;;;7.60;1.38;;;16.30;72.60;;;;;;4864389;29;20080;-81
2023/03/31 10:57:02;;;;;;;4.15;1.00;;;16.30;72.90;;;;;;4862822;29;20041;-79
2023/03/31 10:59:46;;;;;;;5.03;0.80;;;16.30;73.00;;;;;;4833420;29;20049;-79
2023/03/31 11:02:31;;;;;;;10.98;1.77;;;16.30;73.10;;;;;;4832681;29;20041;-77
2023/03/31 11:05:24;;;;;;;8.00;1.63;;;16.30;73.10;;;;;;4833238;29;20045;-79
2023/03/31 11:08:21;;;;;;;4.97;1.00;;;16.30;73.20;;;;;;4848617;29;20050;-80
2023/03/31 11:11:22;;;;;;;4.00;1.15;;;16.30;73.80;;;;;;4848636;29;20299;-77
2023/03/31 11:14:12;;;;;;;10.93;1.88;;;16.30;73.30;;;;;;4862529;29;20057;-81
2023/03/31 11:16:52;;;;;;;6.68;1.55;;;16.30;73.30;;;;;;4848452;29;20041;-74
2023/03/31 11:19:36;;;;;;;12.00;1.77;;;16.40;75.30;;;;;;4879179;29;20128;-76
2023/03/31 11:22:15;;;;;;;14.70;2.03;;;16.50;75.40;;;;;;4864615;29;20064;-80
2023/03/31 11:25:02;;;;;;;8.00;1.35;;;16.50;74.50;;;;;;4848274;29;20041;-79
2023/03/31 11:27:52;;;;;;;8.82;1.52;;;16.50;73.60;;;;;;4863550;29;20064;-79
2023/03/31 11:30:27;;;;;;;6.70;1.60;;;16.50;73.30;;;;;;4879094;29;20124;-77
2023/03/31 11:33:21;;;;;;;13.55;2.22;;;16.40;73.00;;;;;;4847205;29;20479;-79
2023/03/31 11:36:17;;;;;;;8.52;1.60;;;16.40;72.90;;;;;;4847937;29;20467;-79
2023/03/31 11:38:56;;;;;;;5.90;1.75;;;16.40;72.70;;;;;;4855323;29;20415;-77
2023/03/31 11:41:31;;;;;;;8.50;1.63;;;16.40;72.80;;;;;;4847678;29;20067;-80
2023/03/31 11:44:05;;;;;;;8.50;2.42;;;16.30;72.70;;;;;;4840192;29;20056;-79
2023/03/31 11:46:42;;;;;;;7.70;1.73;;;16.30;72.60;;;;;;4859954;29;20052;-79
2023/03/31 11:49:13;;;;;;;9.13;2.35;;;16.30;72.60;;;;;;4845513;29;20475;-78
2023/03/31 11:51:52;;;;;;;7.38;1.90;;;16.30;72.50;;;;;;4829846;29;20057;-78
2023/03/31 11:54:39;;;;;;;7.78;2.25;;;16.30;72.50;;;;;;4845879;29;20054;-80
2023/03/31 11:57:16;;;;;;;12.70;2.28;;;16.30;72.30;;;;;;4849155;29;20133;-78
2023/03/31 11:59:45;;;;;;;11.40;1.90;;;16.30;72.20;;;;;;4846813;29;20083;-76
2023/03/31 12:02:44;;;;;;;7.60;1.50;;;16.30;72.20;;;;;;4863586;29;20109;-78
2023/03/31 12:05:13;;;;;;;8.43;1.52;;;16.30;72.20;;;;;;4863876;29;20076;-78
2023/03/31 12:08:21;;;;;;;5.60;1.48;;;16.30;72.20;;;;;;4847477;29;20064;-78
2023/03/31 12:11:11;;;;;;;5.43;1.50;;;16.30;72.20;;;;;;4848917;29;20068;-78
2023/03/31 12:13:46;;;;;;;6.07;1.40;;;16.20;72.20;;;;;;4832002;29;20049;-78
2023/03/31 12:16:30;;;;;;;6.15;1.40;;;16.20;72.20;;;;;;4847633;29;20068;-78
2023/03/31 12:19:03;;;;;;;5.97;1.17;;;16.20;72.20;;;;;;4847612;29;20147;-76
2023/03/31 12:21:31;;;;;;;4.68;1.38;;;16.20;72.20;;;;;;4864075;29;20045;-79
2023/03/31 12:23:57;;;;;;;8.70;1.38;;;16.20;72.10;;;;;;4863690;29;20037;-78
2023/03/31 12:26:31;;;;;;;4.22;1.45;;;16.20;72.10;;;;;;4847435;29;20063;-77
2023/03/31 12:29:06;;;;;;;5.53;1.33;;;16.20;72.00;;;;;;4861700;29;20072;-80
2023/03/31 12:31:34;;;;;;;6.75;1.52;;;16.20;72.00;;;;;;4847521;29;20435;-78
2023/03/31 12:34:10;;;;;;;4.75;1.23;;;16.20;72.00;;;;;;4847227;29;20065;-77
2023/03/31 12:36:48;;;;;;;12.50;1.55;;;16.20;72.00;;;;;;4831942;29;20053;-79
2023/03/31 12:39:33;;;;;;;4.78;1.63;;;16.20;72.20;;;;;;4861455;29;20050;-76
2023/03/31 12:42:04;;;;;;;10.43;1.70;;;16.20;72.30;;;;;;4853159;29;20045;-80
2023/03/31 12:45:01;;;;;;;10.90;2.08;;;16.20;72.60;;;;;;4850104;29;20356;-77
2023/03/31 12:47:39;;;;;;;9.32;1.90;;;16.20;72.70;;;;;;4853853;29;20050;-77
2023/03/31 12:50:31;;;;;;;9.95;2.10;;;16.20;72.80;;;;;;4877729;29;20049;-79
2023/03/31 12:53:19;;;;;;;7.03;1.50;;;16.20;73.00;;;;;;4853565;29;20412;-76
2023/03/31 12:55:48;;;;;;;12.35;2.33;;;16.20;73.60;;;;;;4844626;29;20110;-77
2023/03/31 12:58:27;;;;;;;12.38;1.88;;;16.20;73.80;;;;;;4828196;29;20081;-77
2023/03/31 13:01:20;;;;;;;22.38;2.47;;;16.30;74.40;;;;;;4839296;29;20049;-79
2023/03/31 13:04:10;;;;;;;19.25;2.50;;;16.30;73.80;;;;;;4844243;29;20113;-81
2023/03/31 13:06:42;;;;;;;14.02;2.22;;;16.30;73.90;;;;;;4845109;29;20038;-79
2023/03/31 13:09:11;;;;;;;15.95;2.95;;;16.30;74.00;;;;;;4828384;29;20120;-77
2023/03/31 13:11:39;;;;;;;15.35;2.55;;;16.40;74.10;;;;;;4874983;29;20042;-78
2023/03/31 13:14:27;;;;;;;13.20;2.60;;;16.40;73.90;;;;;;4851301;29;20518;-75
2023/03/31 13:17:20;;;;;;;11.43;1.80;;;16.40;73.90;;;;;;4867142;29;20391;-79
2023/03/31 13:20:03;;;;;;;14.43;2.25;;;16.50;73.80;;;;;;4854768;29;20056;-80
2023/03/31 13:22:39;;;;;;;9.65;2.58;;;16.50;73.70;;;;;;4871159;29;20044;-78
2023/03/31 13:25:35;;;;;;;8.52;2.28;;;16.50;73.60;;;;;;4855519;29;20036;-76
2023/03/31 13:28:13;;;;;;;13.25;2.05;;;16.50;73.60;;;;;;4846376;29;20115;-76
2023/03/31 13:30:45;;;;;;;10.77;2.00;;;16.50;73.60;;;;;;4880624;29;20480;-76
2023/03/31 13:33:34;;;;;;;14.68;1.67;;;16.50;73.60;;;;;;4848556;29;20049;-77
2023/03/31 13:36:18;;;;;;;14.45;2.05;;;16.50;74.20;;;;;;4872797;29;20055;-78
2023/03/31 13:39:08;;;;;;;7.00;1.42;;;16.50;73.70;;;;;;4862172;29;20085;-78
2023/03/31 13:42:12;;;;;;;7.65;1.60;;;16.50;73.90;;;;;;4829834;29;20046;-79
2023/03/31 13:45:09;;;;;;;7.95;1.70;;;16.50;73.80;;;;;;4827699;29;20046;-77
2023/03/31 13:47:40;;;;;;;8.68;1.77;;;16.50;73.70;;;;;;4863473;29;20437;-78
2023/03/31 13:50:57;;;;;;;7.22;1.30;;;16.50;73.80;;;;;;4865604;29;20109;-80
2023/03/31 13:54:00;;;;;;;4.00;1.15;;;16.50;73.80;;;;;;4809212;29;20076;-79
2023/03/31 13:56:44;;;;;;;7.00;1.58;;;16.50;73.80;;;;;;4839917;29;20049;-79
2023/03/31 13:59:40;;;;;;;9.25;1.45;;;16.50;73.80;;;;;;4867272;29;20081;-79
2023/03/31 14:02:43;;;;;;;13.00;1.88;;;16.50;73.90;;;;;;4870383;29;20354;-79
2023/03/31 14:05:17;;;;;;;4.60;1.20;;;16.50;73.80;;;;;;4867696;29;20116;-80
2023/03/31 14:07:48;;;;;;;8.43;1.30;;;16.50;73.90;;;;;;4853624;29;20049;-77
2023/03/31 14:10:33;;;;;;;7.93;1.95;;;16.50;73.80;;;;;;4870630;29;20080;-77
2023/03/31 14:13:13;;;;;;;9.93;1.35;;;16.50;73.80;;;;;;4873278;29;20049;-78
2023/03/31 14:16:04;;;;;;;7.55;1.63;;;16.50;73.80;;;;;;4857270;29;20501;-77
2023/03/31 14:18:44;;;;;;;6.75;1.55;;;16.50;73.80;;;;;;4867879;29;20386;-82
2023/03/31 14:21:47;;;;;;;9.88;1.88;;;16.40;73.70;;;;;;4867438;29;20037;-78
2023/03/31 14:24:30;;;;;;;9.10;1.70;;;16.50;73.80;;;;;;4864737;29;20451;-80
2023/03/31 14:27:17;;;;;;;14.80;1.98;;;16.50;74.00;;;;;;4848433;29;20050;-78
2023/03/31 14:30:03;;;;;;;15.52;2.25;;;16.50;74.10;;;;;;4879634;29;20041;-79
2023/03/31 14:32:44;;;;;;;12.80;1.75;;;16.50;74.10;;;;;;4848975;29;20073;-80
2023/03/31 14:35:42;;;;;;;19.55;2.03;;;16.50;74.20;;;;;;4865355;29;20077;-81
2023/03/31 14:38:21;;;;;;;12.52;2.05;;;16.50;74.30;;;;;;4865591;29;20121;-77
2023/03/31 14:40:52;;;;;;;18.73;2.28;;;16.50;74.20;;;;;;4865757;29;20042;-78
2023/03/31 14:43:32;;;;;;;23.67;2.80;;;16.50;74.20;;;;;;4864502;29;20049;-78
2023/03/31 14:45:57;;;;;;;;;;;16.50;74.40;;;;;;4865868;29;20049;-79
2023/03/31 14:48:23;;;;;;;30.63;3.45;;;16.50;74.20;;;;;;4848607;29;19920;-79
2023/03/31 14:50:57;;;;;;;17.27;2.20;;;16.50;74.70;;;;;;4865157;29;20078;-75
2023/03/31 14:53:27;;;;;;;;;;;16.50;74.60;;;;;;4864707;29;20053;-78
2023/03/31 14:56:19;;;;;;;28.17;3.50;;;16.50;74.40;;;;;;4833290;29;19920;-79
2023/03/31 14:58:50;;;;;;;25.83;3.80;;;16.50;74.80;;;;;;4833340;29;20060;-79
2023/03/31 15:01:26;;;;;;;28.27;3.88;;;16.40;74.70;;;;;;4833446;29;20129;-78
2023/03/31 15:03:53;;;;;;;31.00;3.05;;;16.50;74.90;;;;;;4848870;29;20042;-79
2023/03/31 15:06:19;;;;;;;18.73;3.05;;;16.50;74.70;;;;;;4849031;29;20042;-78
2023/03/31 15:08:45;;;;;;;20.50;2.88;;;16.50;74.60;;;;;;4848402;29;20045;-78
2023/03/31 15:11:17;;;;;;;18.95;2.40;;;16.50;74.40;;;;;;4848578;29;20057;-80
2023/03/31 15:13:46;;;;;;;20.13;2.58;;;16.50;74.40;;;;;;4848075;29;20121;-75
2023/03/31 15:16:31;;;;;;;14.55;2.50;;;16.50;74.30;;;;;;4874342;29;20049;-77
2023/03/31 15:19:06;;;;;;;9.77;2.33;;;16.50;74.40;;;;;;4871806;29;20038;-76
2023/03/31 15:21:37;;;;;;;16.35;2.28;;;16.50;74.80;;;;;;4872160;29;20037;-79
2023/03/31 15:24:04;;;;;;;15.30;2.05;;;16.50;74.80;;;;;;4854259;29;20466;-79
2023/03/31 15:27:13;;;;;;;10.30;2.53;;;16.50;74.50;;;;;;4856482;29;20044;-79
2023/03/31 15:30:11;;;;;;;14.85;1.73;;;16.50;74.20;;;;;;4850393;29;20051;-81
2023/03/31 15:32:47;;;;;;;10.90;1.65;;;16.50;74.50;;;;;;4806699;29;20051;-77
2023/03/31 15:35:28;;;;;;;13.73;1.77;;;16.50;74.50;;;;;;4864718;29;20448;-78
2023/03/31 15:37:56;;;;;;;14.68;3.28;;;16.50;74.10;;;;;;4840955;29;20052;-78
2023/03/31 15:40:28;;;;;;;16.67;5.90;;;16.50;74.30;;;;;;4869635;29;20124;-78
2023/03/31 15:43:03;;;;;;;14.93;4.25;;;16.50;75.00;;;;;;4856488;29;20366;-80
2023/03/31 15:45:55;;;;;;;16.55;5.97;;;16.50;75.30;;;;;;4868902;29;20057;-76
2023/03/31 15:48:28;;;;;;;14.80;5.90;;;16.50;75.50;;;;;;4866151;29;20482;-79
2023/03/31 15:51:12;;;;;;;16.45;5.30;;;16.60;75.90;;;;;;4863877;29;20045;-78
2023/03/31 15:53:44;;;;;;;16.48;5.20;;;16.60;76.20;;;;;;4878602;29;20105;-79
2023/03/31 15:56:41;;;;;;;14.20;4.78;;;16.60;76.30;;;;;;4848300;29;20179;-78
2023/03/31 15:59:23;;;;;;;13.63;3.75;;;16.60;76.40;;;;;;4876139;29;20148;-80
2023/03/31 16:01:50;;;;;;;10.30;4.22;;;16.60;76.50;;;;;;4832870;29;20120;-81
2023/03/31 16:04:17;;;;;;;13.18;3.85;;;16.60;76.60;;;;;;4847570;29;20053;-81
2023/03/31 16:07:21;;;;;;;24.95;4.03;;;16.60;76.90;;;;;;4847686;29;20097;-79
2023/03/31 16:09:46;;;;;;;14.63;3.55;;;16.60;77.40;;;;;;4832521;29;20112;-81
2023/03/31 16:12:34;;;;;;;28.58;4.15;;;16.60;77.30;;;;;;4847608;29;20407;-82
2023/03/31 16:15:14;;;;;;;21.65;4.20;;;16.60;77.80;;;;;;4863002;29;20041;-79
2023/03/31 16:17:56;;;;;;;12.80;3.75;;;16.60;78.20;;;;;;4862479;29;20045;-80
2023/03/31 16:20:49;;;;;;;30.08;3.85;;;16.60;79.00;;;;;;4860732;29;20068;-81
2023/03/31 16:23:32;;;;;;;20.33;3.60;;;16.60;79.60;;;;;;4861116;29;20045;-82
2023/03/31 16:26:00;;;;;;;20.88;4.05;;;16.60;79.20;;;;;;4863078;29;20033;-80
2023/03/31 16:28:29;;;;;;;21.17;3.22;;;16.60;79.10;;;;;;4846999;29;20057;-79
2023/03/31 16:34:30;;;;;;;34.83;5.63;;;16.60;79.40;;;;;;4846164;29;20062;-80
2023/03/31 16:37:07;;;;;;;34.65;5.20;;;16.60;78.90;;;;;;4832615;29;20049;-80
2023/03/31 16:40:00;;;;;;;53.20;6.70;;;16.60;77.80;;;;;;4818395;29;20057;-80
2023/03/31 16:42:39;;;;;;;;;;;;;;;;;;;;;
2023/03/31 16:45:25;;;;;;;33.95;4.60;;;16.60;78.40;;;;;;4847281;29;20063;-79
2023/03/31 16:47:53;;;;;;;37.60;4.68;;;16.60;78.40;;;;;;4845660;29;20048;-79
2023/03/31 16:50:24;;;;;;;33.55;4.28;;;16.60;78.00;;;;;;4847532;29;20049;-79
2023/03/31 16:52:52;;;;;;;29.52;3.83;;;16.60;77.60;;;;;;4831932;29;20091;-77
2023/03/31 16:55:31;;;;;;;21.65;3.63;;;16.60;77.40;;;;;;4831708;29;20470;-82
2023/03/31 16:58:15;;;;;;;18.40;3.10;;;16.60;77.20;;;;;;4845799;29;20077;-79
2023/03/31 17:00:41;;;;;;;27.80;3.95;;;16.60;77.20;;;;;;4846128;29;20034;-82
2023/03/31 17:03:12;;;;;;;23.30;3.35;;;16.60;77.20;;;;;;4831636;29;20105;-79
2023/03/31 17:05:44;;;;;;;24.88;3.53;;;16.60;77.30;;;;;;4846703;29;20451;-79
2023/03/31 17:08:16;;;;;;;31.60;3.80;;;16.60;77.50;;;;;;4862822;29;20060;-79
2023/03/31 19:02:35;;;;;;;5.65;1.80;;;16.40;74.70;;;;;;5649315;23;20069;-78
2023/03/31 19:05:01;;;;;;;9.93;1.85;;;16.40;74.70;;;;;;4846934;29;20457;-77
2023/03/31 19:07:27;;;;;;;9.20;1.92;;;16.40;74.50;;;;;;4882019;29;20045;-77
2023/03/31 19:09:56;;;;;;;12.90;2.45;;;16.30;75.00;;;;;;4883630;29;20045;-77
2023/03/31 19:12:22;;;;;;;12.32;2.17;;;16.40;75.20;;;;;;4851711;29;20120;-77
2023/03/31 19:14:53;;;;;;;7.82;1.95;;;16.40;75.30;;;;;;4866799;29;20041;-79
2023/03/31 19:17:19;;;;;;;10.57;1.90;;;16.40;75.40;;;;;;4866915;29;20041;-78
2023/03/31 19:19:44;;;;;;;11.90;2.30;;;16.30;75.40;;;;;;4883380;29;20045;-76
2023/03/31 19:22:10;;;;;;;7.10;1.98;;;16.40;75.60;;;;;;4883326;29;20048;-82
2023/03/31 19:24:36;;;;;;;6.82;1.50;;;16.40;75.80;;;;;;4883207;29;20124;-76
2023/03/31 19:27:10;;;;;;;7.95;1.90;;;16.40;76.00;;;;;;4851183;29;20072;-79
2023/03/31 19:29:36;;;;;;;10.38;1.67;;;16.40;75.90;;;;;;4866479;29;20084;-78
2023/03/31 19:32:02;;;;;;;9.20;1.83;;;16.40;75.70;;;;;;4883049;29;20440;-78
2023/03/31 19:34:28;;;;;;;10.35;1.90;;;16.40;75.50;;;;;;4882933;29;20088;-76
2023/03/31 19:36:54;;;;;;;5.63;1.75;;;16.40;75.40;;;;;;4882443;29;20084;-74
2023/03/31 19:39:20;;;;;;;8.38;2.58;;;16.40;75.40;;;;;;4881569;29;20056;-71
2023/03/31 19:41:46;;;;;;;6.43;1.50;;;16.40;75.60;;;;;;4865932;29;20121;-76
2023/03/31 19:44:12;;;;;;;7.22;1.50;;;16.40;76.20;;;;;;4882979;29;20041;-77
2023/03/31 19:46:37;;;;;;;9.15;1.40;;;16.40;75.50;;;;;;4883251;29;20059;-77
2023/03/31 19:49:04;;;;;;;7.53;1.70;;;16.40;75.50;;;;;;4873640;29;20068;-77
2023/03/31 19:51:30;;;;;;;4.32;1.48;;;16.40;75.60;;;;;;4893742;29;20354;-75
2023/03/31 19:53:56;;;;;;;9.60;2.15;;;16.40;75.60;;;;;;4866098;29;20108;-77
2023/03/31 19:56:24;;;;;;;10.88;2.28;;;16.40;75.60;;;;;;4882849;29;20450;-75
2023/03/31 19:58:51;;;;;;;5.95;1.50;;;16.40;75.60;;;;;;4882675;29;20382;-78
2023/03/31 20:01:25;;;;;;;6.20;2.03;;;16.40;75.60;;;;;;4882501;29;20049;-76
2023/03/31 20:03:54;;;;;;;6.50;1.98;;;16.40;75.50;;;;;;4882459;29;20071;-79
2023/03/31 20:06:23;;;;;;;6.30;1.52;;;16.40;75.50;;;;;;4882873;29;20052;-79
2023/03/31 20:08:54;;;;;;;6.78;1.83;;;16.40;75.60;;;;;;4882176;29;20488;-77
2023/03/31 20:11:20;;;;;;;5.15;1.88;;;16.50;75.60;;;;;;4882865;29;20060;-77
2023/03/31 20:13:46;;;;;;;6.35;1.45;;;16.40;75.60;;;;;;4882491;29;20340;-76
2023/03/31 20:16:24;;;;;;;7.13;1.67;;;16.40;75.60;;;;;;4865592;29;20065;-76
2023/03/31 20:18:55;;;;;;;7.82;2.08;;;16.40;75.60;;;;;;4881455;29;20071;-76
2023/03/31 20:21:24;;;;;;;4.10;1.80;;;16.40;75.60;;;;;;4882148;29;20116;-78
2023/03/31 20:23:50;;;;;;;6.88;1.52;;;16.40;75.40;;;;;;4887060;29;20040;-76
2023/03/31 20:26:19;;;;;;;4.70;1.33;;;16.40;75.30;;;;;;4882333;29;20140;-77
2023/03/31 20:28:46;;;;;;;4.72;1.60;;;16.40;75.30;;;;;;4865526;29;20463;-77
2023/03/31 20:31:18;;;;;;;7.18;1.85;;;16.40;75.40;;;;;;4862068;29;20061;-75
2023/03/31 20:33:44;;;;;;;4.85;1.38;;;16.40;75.30;;;;;;4881684;29;20044;-77
2023/03/31 20:36:22;;;;;;;4.60;1.88;;;16.40;75.30;;;;;;4873416;29;20053;-78
2023/03/31 20:38:50;;;;;;;6.20;1.55;;;16.30;75.20;;;;;;4878670;29;20067;-77
2023/03/31 20:41:16;;;;;;;3.60;1.80;;;16.40;75.20;;;;;;4897886;29;20481;-76
2023/03/31 20:43:42;;;;;;;3.92;1.90;;;16.40;74.40;;;;;;4882194;29;20143;-78
2023/03/31 20:46:09;;;;;;;4.40;1.80;;;16.40;73.80;;;;;;4888902;29;20115;-79
2023/03/31 20:48:44;;;;;;;5.95;2.08;;;16.30;73.50;;;;;;4890526;29;20052;-74
2023/03/31 20:51:13;;;;;;;5.28;1.85;;;16.20;73.10;;;;;;4886269;29;20120;-74
2023/03/31 20:53:42;;;;;;;4.95;1.85;;;16.10;72.90;;;;;;4889714;29;20195;-73
2023/03/31 20:56:09;;;;;;;3.92;2.00;;;16.10;72.90;;;;;;4891452;29;20124;-74
2023/03/31 20:58:35;;;;;;;3.33;2.20;;;16.00;72.80;;;;;;4887287;29;20048;-74
2023/03/31 21:01:01;;;;;;;3.80;1.73;;;16.00;72.70;;;;;;4887664;29;20056;-74
2023/03/31 21:03:27;;;;;;;3.10;1.92;;;15.90;72.70;;;;;;4883459;29;20480;-74
2023/03/31 21:05:52;;;;;;;5.15;2.00;;;15.90;72.70;;;;;;4877992;29;20061;-74
